createdAt,value
2023-02-11T00:01:13.016Z,2.53
2023-02-11T00:03:41.234Z,2.53
2023-02-11T00:06:10.724Z,2.52
2023-02-11T00:08:39.012Z,2.49
2023-02-11T00:11:07.292Z,2.47
2023-02-11T00:13:35.091Z,2.47
2023-02-11T00:16:08.273Z,2.47
2023-02-11T00:18:36.158Z,2.47
2023-02-11T00:21:08.169Z,2.48
2023-02-11T00:23:36.564Z,2.48
2023-02-11T00:26:11.075Z,2.48
2023-02-11T00:28:38.856Z,2.50
2023-02-11T00:31:09.545Z,2.52
2023-02-11T00:33:38.326Z,2.51
2023-02-11T00:36:11.446Z,2.52
2023-02-11T00:38:39.168Z,2.52
2023-02-11T00:41:07.114Z,2.52
2023-02-11T00:43:36.165Z,2.51
2023-02-11T00:46:04.304Z,2.49
2023-02-11T00:48:32.451Z,2.49
2023-02-11T00:51:03.416Z,2.47
2023-02-11T00:53:31.372Z,2.47
2023-02-11T00:56:00.467Z,2.46
2023-02-11T00:58:28.608Z,2.45
2023-02-11T01:00:56.564Z,2.44
2023-02-11T01:03:25.904Z,2.44
2023-02-11T01:05:53.848Z,2.44
2023-02-11T01:08:21.816Z,2.51
2023-02-11T01:10:56.107Z,2.56
2023-02-11T01:13:24.978Z,2.59
2023-02-11T01:15:55.921Z,2.62
2023-02-11T01:18:24.557Z,2.66
2023-02-11T01:20:53.424Z,2.67
2023-02-11T01:23:21.251Z,2.69
2023-02-11T01:25:49.466Z,2.70
2023-02-11T01:28:18.730Z,2.70
2023-02-11T01:30:46.908Z,2.69
2023-02-11T01:33:14.955Z,2.66
2023-02-11T01:35:43.208Z,2.64
2023-02-11T01:38:16.307Z,2.66
2023-02-11T01:40:48.559Z,2.66
2023-02-11T01:43:16.338Z,2.67
2023-02-11T01:45:57.995Z,2.67
2023-02-11T01:48:29.688Z,2.67
2023-02-11T01:51:04.649Z,2.66
2023-02-11T01:54:03.763Z,2.63
2023-02-11T01:56:51.127Z,2.61
2023-02-11T01:59:24.130Z,2.61
2023-02-11T02:01:56.880Z,2.59
2023-02-11T02:04:30.880Z,2.56
2023-02-11T02:07:06.200Z,2.55
2023-02-11T02:09:41.617Z,2.54
2023-02-11T02:12:09.378Z,2.55
2023-02-11T02:14:40.205Z,2.55
2023-02-11T02:17:10.140Z,2.55
2023-02-11T02:20:07.973Z,2.57
2023-02-11T02:23:09.329Z,2.57
2023-02-11T02:26:01.478Z,2.59
2023-02-11T02:28:46.681Z,2.60
2023-02-11T02:31:25.350Z,2.61
2023-02-11T02:34:00.293Z,2.61
2023-02-11T02:36:37.791Z,2.62
2023-02-11T02:39:10.380Z,2.62
2023-02-11T02:41:39.844Z,2.63
2023-02-11T02:44:08.686Z,2.63
2023-02-11T02:46:37.333Z,2.63
2023-02-11T02:49:12.115Z,2.63
2023-02-11T02:52:03.856Z,2.62
2023-02-11T02:54:52.981Z,2.60
2023-02-11T02:57:32.387Z,2.60
2023-02-11T03:00:14.909Z,2.61
2023-02-11T03:02:51.924Z,2.61
2023-02-11T03:05:30.209Z,2.61
2023-02-11T03:08:04.905Z,2.61
2023-02-11T03:10:36.816Z,2.62
2023-02-11T03:13:06.539Z,2.61
2023-02-11T03:15:40.242Z,2.59
2023-02-11T03:18:13.309Z,2.56
2023-02-11T03:20:44.690Z,2.54
2023-02-11T03:23:17.957Z,2.53
2023-02-11T03:25:51.918Z,2.52
2023-02-11T03:28:29.140Z,2.51
2023-02-11T03:31:09.421Z,2.51
2023-02-11T03:33:45.685Z,2.51
2023-02-11T03:36:18.494Z,2.51
2023-02-11T03:38:50.207Z,2.51
2023-02-11T03:41:22.290Z,2.50
2023-02-11T03:43:53.142Z,2.50
2023-02-11T03:46:25.087Z,2.51
2023-02-11T03:48:56.469Z,2.55
2023-02-11T03:51:26.871Z,2.64
2023-02-11T03:53:57.940Z,2.71
2023-02-11T03:56:30.802Z,2.78
2023-02-11T03:58:58.743Z,2.86
2023-02-11T04:01:26.615Z,2.94
2023-02-11T04:03:54.434Z,3.00
2023-02-11T04:06:22.507Z,3.05
2023-02-11T04:08:50.218Z,3.10
2023-02-11T04:11:17.916Z,3.11
2023-02-11T04:13:45.700Z,3.12
2023-02-11T04:16:13.545Z,3.12
2023-02-11T04:18:41.370Z,3.11
2023-02-11T04:21:09.098Z,3.11
2023-02-11T04:23:36.854Z,3.10
2023-02-11T04:26:05.001Z,3.07
2023-02-11T04:28:32.763Z,3.06
2023-02-11T04:31:00.646Z,3.05
2023-02-11T04:33:28.608Z,3.05
2023-02-11T04:35:56.304Z,3.06
2023-02-11T04:38:24.042Z,3.06
2023-02-11T04:40:51.775Z,3.07
2023-02-11T04:43:19.463Z,3.05
2023-02-11T04:45:47.218Z,3.05
2023-02-11T04:48:15.024Z,3.02
2023-02-11T04:50:42.732Z,2.99
2023-02-11T04:53:10.422Z,2.95
2023-02-11T04:55:38.119Z,2.90
2023-02-11T04:58:05.823Z,2.87
2023-02-11T05:00:33.605Z,2.87
2023-02-11T05:03:01.302Z,2.87
2023-02-11T05:05:29.076Z,2.84
2023-02-11T05:07:57.574Z,2.81
2023-02-11T05:10:25.336Z,2.81
2023-02-11T05:12:55.634Z,2.80
2023-02-11T05:15:23.686Z,2.79
2023-02-11T05:17:51.350Z,2.80
2023-02-11T05:20:19.724Z,2.81
2023-02-11T05:22:47.643Z,2.81
2023-02-11T05:25:15.421Z,2.80
2023-02-11T05:27:43.135Z,2.78
2023-02-11T05:30:13.137Z,2.77
2023-02-11T05:32:40.910Z,2.78
2023-02-11T05:35:09.111Z,2.80
2023-02-11T05:37:36.959Z,2.83
2023-02-11T05:40:06.444Z,2.84
2023-02-11T05:42:34.157Z,2.87
2023-02-11T05:45:02.089Z,2.86
2023-02-11T05:47:29.837Z,2.86
2023-02-11T05:49:57.546Z,2.86
2023-02-11T05:52:25.576Z,2.87
2023-02-11T05:54:53.307Z,2.87
2023-02-11T05:57:20.984Z,2.89
2023-02-11T05:59:48.700Z,2.90
2023-02-11T06:02:16.475Z,2.89
2023-02-11T06:04:44.777Z,2.88
2023-02-11T06:07:12.492Z,2.87
2023-02-11T06:09:40.294Z,2.87
2023-02-11T06:12:08.391Z,2.85
2023-02-11T06:14:36.585Z,2.85
2023-02-11T06:17:04.701Z,2.84
2023-02-11T06:19:32.966Z,2.83
2023-02-11T06:22:00.867Z,2.82
2023-02-11T06:24:51.372Z,2.84
2023-02-11T06:27:17.426Z,2.84
2023-02-11T06:29:45.793Z,2.86
2023-02-11T06:32:35.669Z,2.89
2023-02-11T06:35:01.715Z,2.90
2023-02-11T06:37:29.436Z,2.92
2023-02-11T06:39:57.128Z,2.95
2023-02-11T06:42:24.840Z,2.98
2023-02-11T06:44:52.569Z,2.98
2023-02-11T06:47:20.287Z,2.98
2023-02-11T06:49:49.042Z,2.99
2023-02-11T06:52:16.778Z,2.99
2023-02-11T06:54:44.498Z,3.01
2023-02-11T06:57:12.267Z,3.02
2023-02-11T06:59:42.342Z,3.04
2023-02-11T07:02:10.860Z,3.06
2023-02-11T07:04:38.764Z,3.09
2023-02-11T07:07:06.656Z,3.13
2023-02-11T07:09:35.517Z,3.15
2023-02-11T07:12:03.629Z,3.17
2023-02-11T07:14:31.752Z,3.19
2023-02-11T07:16:59.458Z,3.22
2023-02-11T07:19:27.267Z,3.23
2023-02-11T07:21:55.013Z,3.27
2023-02-11T07:24:22.750Z,3.30
2023-02-11T07:26:50.469Z,3.34
2023-02-11T07:29:18.188Z,3.38
2023-02-11T07:31:45.989Z,3.41
2023-02-11T07:34:13.786Z,3.45
2023-02-11T07:36:43.072Z,3.48
2023-02-11T07:39:10.866Z,3.53
2023-02-11T07:41:38.744Z,3.58
2023-02-11T07:44:07.164Z,3.62
2023-02-11T07:46:35.288Z,3.65
2023-02-11T07:49:03.312Z,3.70
2023-02-11T07:51:31.592Z,3.74
2023-02-11T07:54:00.422Z,3.75
2023-02-11T07:56:29.456Z,3.77
2023-02-11T07:59:01.052Z,3.78
2023-02-11T08:01:29.476Z,3.79
2023-02-11T08:03:59.543Z,3.80
2023-02-11T08:06:29.845Z,3.83
2023-02-11T08:08:57.633Z,3.85
2023-02-11T08:11:27.350Z,3.87
2023-02-11T08:13:56.615Z,3.88
2023-02-11T08:16:27.040Z,3.89
2023-02-11T08:18:57.979Z,3.89
2023-02-11T08:21:26.224Z,3.89
2023-02-11T08:23:54.589Z,3.90
2023-02-11T08:26:23.722Z,3.91
2023-02-11T08:28:53.513Z,3.90
2023-02-11T08:31:23.260Z,3.91
2023-02-11T08:33:52.618Z,3.92
2023-02-11T08:36:22.664Z,3.95
2023-02-11T08:38:50.816Z,3.99
2023-02-11T08:41:18.855Z,4.09
2023-02-11T08:43:47.198Z,4.18
2023-02-11T08:46:18.653Z,4.28
2023-02-11T08:48:47.333Z,4.38
2023-02-11T08:51:17.278Z,4.48
2023-02-11T08:53:45.737Z,4.56
2023-02-11T08:56:15.304Z,4.62
2023-02-11T08:58:43.657Z,4.67
2023-02-11T09:01:12.465Z,4.72
2023-02-11T09:03:40.330Z,4.76
2023-02-11T09:06:09.829Z,4.82
2023-02-11T09:08:39.272Z,4.91
2023-02-11T09:11:08.169Z,5.02
2023-02-11T09:13:36.482Z,5.17
2023-02-11T09:16:06.834Z,5.36
2023-02-11T09:18:34.697Z,5.47
2023-02-11T09:21:07.439Z,5.56
2023-02-11T09:23:35.982Z,5.59
2023-02-11T09:26:09.221Z,5.61
2023-02-11T09:28:37.449Z,5.68
2023-02-11T09:31:07.464Z,5.73
2023-02-11T09:33:35.887Z,5.78
2023-02-11T09:36:05.485Z,5.84
2023-02-11T09:38:34.073Z,5.90
2023-02-11T09:41:07.063Z,5.97
2023-02-11T09:43:43.662Z,6.06
2023-02-11T09:46:15.214Z,6.15
2023-02-11T09:48:46.256Z,6.20
2023-02-11T09:51:20.622Z,6.23
2023-02-11T09:53:53.043Z,6.28
2023-02-11T09:56:20.784Z,6.32
2023-02-11T09:58:48.578Z,6.37
2023-02-11T10:01:28.862Z,6.41
2023-02-11T10:04:04.292Z,6.43
2023-02-11T10:06:39.928Z,6.44
2023-02-11T10:09:23.393Z,6.44
2023-02-11T10:12:00.728Z,6.42
2023-02-11T10:14:51.798Z,6.40
2023-02-11T10:17:32.181Z,6.35
2023-02-11T10:20:18.206Z,6.40
2023-02-11T10:22:49.117Z,6.46
2023-02-11T10:25:23.160Z,6.51
2023-02-11T10:27:52.619Z,6.55
2023-02-11T10:30:25.971Z,6.58
2023-02-11T10:32:59.413Z,6.64
2023-02-11T10:35:27.374Z,6.68
2023-02-11T10:37:55.594Z,6.68
2023-02-11T10:40:25.368Z,6.70
2023-02-11T10:42:55.999Z,6.70
2023-02-11T10:45:30.151Z,6.70
2023-02-11T10:47:58.965Z,6.68
2023-02-11T10:50:28.515Z,6.66
2023-02-11T10:53:15.105Z,6.63
2023-02-11T10:55:51.285Z,6.62
2023-02-11T10:58:26.317Z,6.60
2023-02-11T11:00:56.041Z,6.63
2023-02-11T11:03:26.251Z,6.69
2023-02-11T11:05:58.565Z,6.71
2023-02-11T11:08:39.280Z,6.74
2023-02-11T11:11:09.313Z,6.77
2023-02-11T11:13:38.565Z,6.78
2023-02-11T11:16:32.821Z,6.78
2023-02-11T11:19:21.872Z,6.76
2023-02-11T11:21:51.485Z,6.74
2023-02-11T11:24:23.488Z,6.72
2023-02-11T11:26:54.504Z,6.71
2023-02-11T11:29:29.879Z,6.69
2023-02-11T11:32:00.649Z,6.68
2023-02-11T11:34:31.480Z,6.69
2023-02-11T11:37:01.718Z,6.73
2023-02-11T11:39:32.646Z,6.79
2023-02-11T11:42:02.583Z,6.87
2023-02-11T11:44:33.061Z,6.94
2023-02-11T11:47:32.792Z,6.99
2023-02-11T11:50:25.022Z,7.05
2023-02-11T11:53:00.553Z,7.08
2023-02-11T11:55:34.289Z,7.10
2023-02-11T11:58:02.314Z,7.10
2023-02-11T12:00:36.361Z,7.09
2023-02-11T12:03:32.310Z,7.09
2023-02-11T12:06:13.684Z,7.03
2023-02-11T12:08:52.106Z,7.00
2023-02-11T12:11:30.883Z,6.98
2023-02-11T12:14:12.040Z,6.97
2023-02-11T12:16:51.714Z,6.96
2023-02-11T12:19:40.184Z,6.96
2023-02-11T12:22:12.238Z,7.00
2023-02-11T12:25:02.658Z,7.03
2023-02-11T12:27:47.832Z,7.08
2023-02-11T12:30:38.497Z,7.12
2023-02-11T12:33:14.932Z,7.18
2023-02-11T12:35:54.577Z,7.20
2023-02-11T12:38:37.056Z,7.22
2023-02-11T12:41:42.405Z,7.22
2023-02-11T12:44:18.882Z,7.20
2023-02-11T12:46:55.217Z,7.19
2023-02-11T12:49:41.035Z,7.17
2023-02-11T12:52:22.959Z,7.14
2023-02-11T12:54:59.088Z,7.09
2023-02-11T12:57:28.908Z,7.06
2023-02-11T13:00:03.592Z,7.02
2023-02-11T13:02:39.540Z,7.03
2023-02-11T13:05:19.421Z,7.04
2023-02-11T13:07:49.271Z,7.06
2023-02-11T13:10:29.736Z,7.09
2023-02-11T13:13:17.251Z,7.11
2023-02-11T13:15:49.865Z,7.09
2023-02-11T13:18:36.564Z,7.08
2023-02-11T13:21:29.805Z,7.08
2023-02-11T13:24:06.204Z,7.07
2023-02-11T13:26:43.275Z,7.02
2023-02-11T13:29:22.176Z,6.95
2023-02-11T13:32:04.726Z,6.92
2023-02-11T13:34:56.955Z,6.90
2023-02-11T13:37:27.342Z,6.94
2023-02-11T13:40:00.332Z,6.98
2023-02-11T13:42:29.447Z,7.02
2023-02-11T13:44:57.794Z,7.03
2023-02-11T13:47:30.008Z,7.05
2023-02-11T13:49:59.282Z,7.07
2023-02-11T13:52:30.123Z,7.07
2023-02-11T13:55:06.531Z,7.07
2023-02-11T13:57:39.725Z,7.05
2023-02-11T14:00:47.839Z,7.03
2023-02-11T14:03:46.969Z,6.98
2023-02-11T14:06:36.549Z,6.93
2023-02-11T14:09:39.330Z,6.90
2023-02-11T14:12:30.455Z,6.87
2023-02-11T14:15:18.255Z,6.88
2023-02-11T14:17:46.147Z,6.90
2023-02-11T14:20:42.670Z,6.92
2023-02-11T14:23:25.144Z,6.93
2023-02-11T14:26:22.358Z,6.93
2023-02-11T14:29:00.612Z,6.92
2023-02-11T14:31:35.631Z,6.92
2023-02-11T14:34:31.130Z,6.90
2023-02-11T14:37:09.132Z,6.84
2023-02-11T14:39:53.378Z,6.81
2023-02-11T14:42:26.255Z,6.76
2023-02-11T14:44:56.382Z,6.78
2023-02-11T14:47:29.245Z,6.80
2023-02-11T14:49:57.381Z,6.84
2023-02-11T14:52:29.333Z,6.82
2023-02-11T14:55:06.048Z,6.80
2023-02-11T14:57:34.526Z,6.76
2023-02-11T15:00:06.428Z,6.68
2023-02-11T15:02:38.185Z,6.59
2023-02-11T15:05:18.339Z,6.54
2023-02-11T15:07:48.368Z,6.53
2023-02-11T15:10:20.839Z,6.50
2023-02-11T15:12:49.937Z,6.48
2023-02-11T15:15:18.162Z,6.44
2023-02-11T15:17:46.810Z,6.40
2023-02-11T15:20:21.864Z,6.38
2023-02-11T15:22:55.075Z,6.37
2023-02-11T15:25:23.538Z,6.37
2023-02-11T15:27:53.383Z,6.34
2023-02-11T15:30:33.481Z,6.34
2023-02-11T15:33:04.781Z,6.34
2023-02-11T15:35:35.877Z,6.37
2023-02-11T15:38:04.748Z,6.42
2023-02-11T15:40:34.908Z,6.43
2023-02-11T15:43:04.524Z,6.44
2023-02-11T15:45:35.554Z,6.45
2023-02-11T15:48:09.229Z,6.46
2023-02-11T15:50:40.116Z,6.47
2023-02-11T15:53:22.985Z,6.45
2023-02-11T15:55:54.380Z,6.45
2023-02-11T15:58:23.607Z,6.50
2023-02-11T16:00:59.033Z,6.52
2023-02-11T16:03:31.914Z,6.54
2023-02-11T16:06:18.416Z,6.55
2023-02-11T16:08:58.655Z,6.57
2023-02-11T16:11:29.858Z,6.55
2023-02-11T16:14:00.078Z,6.55
2023-02-11T16:16:31.541Z,6.54
2023-02-11T16:19:06.006Z,6.50
2023-02-11T16:21:38.397Z,6.45
2023-02-11T16:24:17.432Z,6.43
2023-02-11T16:26:49.951Z,6.49
2023-02-11T16:29:23.069Z,6.53
2023-02-11T16:31:53.914Z,6.56
2023-02-11T16:34:23.635Z,6.58
2023-02-11T16:36:52.399Z,6.59
2023-02-11T16:39:21.836Z,6.60
2023-02-11T16:41:50.696Z,6.60
2023-02-11T16:44:18.466Z,6.59
2023-02-11T16:46:46.768Z,6.56
2023-02-11T16:49:21.262Z,6.53
2023-02-11T16:51:52.001Z,6.51
2023-02-11T16:54:20.185Z,6.51
2023-02-11T16:56:47.938Z,6.55
2023-02-11T16:59:15.932Z,6.55
2023-02-11T17:01:44.687Z,6.58
2023-02-11T17:04:18.798Z,6.62
2023-02-11T17:06:47.521Z,6.63
2023-02-11T17:09:19.890Z,6.66
2023-02-11T17:11:46.822Z,6.67
2023-02-11T17:14:15.057Z,6.68
2023-02-11T17:16:44.467Z,6.67
2023-02-11T17:19:14.686Z,6.61
2023-02-11T17:21:42.671Z,6.59
2023-02-11T17:24:10.962Z,6.56
2023-02-11T17:26:39.104Z,6.58
2023-02-11T17:29:08.564Z,6.58
2023-02-11T17:31:39.863Z,6.60
2023-02-11T17:34:08.850Z,6.66
2023-02-11T17:36:36.971Z,6.70
2023-02-11T17:39:08.095Z,6.72
2023-02-11T17:41:37.175Z,6.74
2023-02-11T17:44:06.271Z,6.75
2023-02-11T17:46:35.554Z,6.72
2023-02-11T17:49:03.711Z,6.70
2023-02-11T17:51:33.161Z,6.68
2023-02-11T17:54:03.104Z,6.71
2023-02-11T17:56:33.404Z,6.72
2023-02-11T17:59:02.237Z,6.74
2023-02-11T18:01:31.329Z,6.77
2023-02-11T18:03:59.228Z,6.81
2023-02-11T18:06:28.407Z,6.82
2023-02-11T18:08:59.016Z,6.81
2023-02-11T18:11:27.329Z,6.79
2023-02-11T18:13:55.075Z,6.75
2023-02-11T18:16:24.415Z,6.71
2023-02-11T18:18:52.516Z,6.67
2023-02-11T18:21:21.673Z,6.71
2023-02-11T18:23:50.365Z,6.74
2023-02-11T18:26:20.925Z,6.75
2023-02-11T18:28:48.778Z,6.74
2023-02-11T18:31:18.271Z,6.71
2023-02-11T18:33:47.201Z,6.68
2023-02-11T18:36:16.138Z,6.66
2023-02-11T18:38:44.073Z,6.66
2023-02-11T18:41:12.819Z,6.65
2023-02-11T18:43:42.283Z,6.60
2023-02-11T18:46:12.263Z,6.61
2023-02-11T18:48:40.420Z,6.64
2023-02-11T18:51:13.996Z,6.67
2023-02-11T18:53:42.436Z,6.71
2023-02-11T18:56:13.138Z,6.74
2023-02-11T18:58:41.133Z,6.75
2023-02-11T19:01:16.512Z,6.76
2023-02-11T19:03:45.284Z,6.76
2023-02-11T19:06:17.597Z,6.75
2023-02-11T19:08:44.470Z,6.73
2023-02-11T19:11:15.425Z,6.70
2023-02-11T19:13:43.215Z,6.67
2023-02-11T19:16:13.271Z,6.66
2023-02-11T19:18:41.372Z,6.65
2023-02-11T19:21:11.575Z,6.68
2023-02-11T19:23:39.735Z,6.68
2023-02-11T19:26:07.658Z,6.66
2023-02-11T19:28:36.254Z,6.66
2023-02-11T19:31:08.807Z,6.64
2023-02-11T19:33:37.079Z,6.64
2023-02-11T19:36:07.371Z,6.60
2023-02-11T19:38:35.761Z,6.60
2023-02-11T19:41:04.519Z,6.67
2023-02-11T19:43:32.541Z,6.72
2023-02-11T19:46:03.285Z,6.77
2023-02-11T19:48:31.943Z,6.81
2023-02-11T19:51:09.447Z,6.83
2023-02-11T19:53:38.549Z,6.86
2023-02-11T19:56:08.120Z,6.86
2023-02-11T19:58:37.085Z,6.85
2023-02-11T20:01:07.677Z,6.81
2023-02-11T20:03:36.485Z,6.77
2023-02-11T20:06:08.090Z,6.80
2023-02-11T20:08:36.050Z,6.83
2023-02-11T20:11:09.094Z,6.84
2023-02-11T20:13:38.565Z,6.83
2023-02-11T20:16:09.931Z,6.82
2023-02-11T20:18:38.335Z,6.81
2023-02-11T20:21:11.069Z,6.81
2023-02-11T20:23:40.115Z,6.80
2023-02-11T20:26:09.466Z,6.79
2023-02-11T20:28:37.824Z,6.80
2023-02-11T20:31:06.613Z,6.83
2023-02-11T20:33:34.682Z,6.84
2023-02-11T20:36:05.133Z,6.83
2023-02-11T20:38:33.125Z,6.82
2023-02-11T20:41:04.022Z,6.85
2023-02-11T20:43:31.757Z,6.85
2023-02-11T20:46:03.597Z,6.84
2023-02-11T20:48:31.851Z,6.85
2023-02-11T20:51:04.851Z,6.84
2023-02-11T20:53:35.039Z,6.82
2023-02-11T20:56:03.878Z,6.86
2023-02-11T20:58:32.041Z,6.87
2023-02-11T21:01:08.273Z,6.85
2023-02-11T21:03:36.097Z,6.87
2023-02-11T21:06:04.476Z,6.89
2023-02-11T21:08:32.195Z,6.89
2023-02-11T21:11:01.246Z,6.88
2023-02-11T21:13:29.161Z,6.88
2023-02-11T21:15:57.579Z,6.87
2023-02-11T21:18:26.005Z,6.89
2023-02-11T21:20:55.811Z,6.89
2023-02-11T21:23:24.166Z,6.91
2023-02-11T21:25:53.692Z,6.95
2023-02-11T21:28:25.580Z,6.98
2023-02-11T21:30:54.089Z,7.02
2023-02-11T21:33:22.970Z,7.02
2023-02-11T21:35:54.123Z,6.98
2023-02-11T21:38:22.699Z,6.96
2023-02-11T21:40:50.572Z,6.94
2023-02-11T21:43:18.377Z,6.92
2023-02-11T21:45:47.841Z,6.95
2023-02-11T21:48:16.741Z,6.99
2023-02-11T21:50:47.125Z,7.05
2023-02-11T21:53:15.397Z,7.10
2023-02-11T21:55:43.075Z,7.11
2023-02-11T21:58:12.734Z,7.11
2023-02-11T22:00:40.510Z,7.13
2023-02-11T22:03:08.590Z,7.14
2023-02-11T22:05:40.291Z,7.15
2023-02-11T22:08:08.006Z,7.14
2023-02-11T22:10:35.712Z,7.11
2023-02-11T22:13:03.448Z,7.15
2023-02-11T22:15:31.372Z,7.16
2023-02-11T22:17:59.093Z,7.19
2023-02-11T22:20:26.907Z,7.22
2023-02-11T22:22:54.706Z,7.25
2023-02-11T22:25:22.403Z,7.27
2023-02-11T22:27:50.218Z,7.29
2023-02-11T22:30:18.618Z,7.30
2023-02-11T22:32:46.779Z,7.31
2023-02-11T22:35:14.915Z,7.31
2023-02-11T22:37:42.690Z,7.30
2023-02-11T22:40:13.002Z,7.29
2023-02-11T22:42:40.751Z,7.29
2023-02-11T22:45:09.978Z,7.34
2023-02-11T22:47:38.286Z,7.36
2023-02-11T22:50:08.108Z,7.38
2023-02-11T22:52:36.164Z,7.40
2023-02-11T22:55:04.681Z,7.40
2023-02-11T22:57:32.439Z,7.35
2023-02-11T23:00:00.182Z,7.33
2023-02-11T23:02:27.903Z,7.35
2023-02-11T23:04:55.674Z,7.33
2023-02-11T23:07:23.645Z,7.32
2023-02-11T23:09:51.484Z,7.28
2023-02-11T23:12:19.277Z,7.24
2023-02-11T23:14:47.475Z,7.22
2023-02-11T23:17:15.176Z,7.23
2023-02-11T23:19:42.887Z,7.26
2023-02-11T23:22:10.595Z,7.26
2023-02-11T23:24:38.433Z,7.24
2023-02-11T23:27:06.680Z,7.21
2023-02-11T23:29:34.463Z,7.17
2023-02-11T23:32:02.248Z,7.12
2023-02-11T23:34:30.095Z,7.10
2023-02-11T23:36:59.026Z,7.08
2023-02-11T23:39:27.120Z,7.11
2023-02-11T23:41:58.312Z,7.16
2023-02-11T23:44:26.265Z,7.19
2023-02-11T23:46:54.214Z,7.21
2023-02-11T23:49:22.112Z,7.22
2023-02-11T23:51:49.911Z,7.24
2023-02-11T23:54:17.677Z,7.28
2023-02-11T23:56:45.414Z,7.29
2023-02-11T23:59:13.406Z,7.30
